Timeline UpdatesTrip UpdatesNews PostsPvt PostsTravel TipsAdmin PostsConv PostsFollowed PostsChat RequestsBlog PostsPNR Posts

Disclaimer
Search
 
 
Mon Sep 22, 2014 05:40:56 ISTHomeTrainsΣChainsAtlasPNRForumGalleryNewsFAQTripsMembersLoginFeedback
No Recent News for this Train
Other Trains in the News **new
Latest...
⇐ Return Journey: Train# 54256

54255/Varanasi Lucknow Passenger (UnReserved)

Time-Table HAS CHANGED.
Sep 02 (11:11PM)
Change Departure Station:
Change Arrival Station:
Post a Train Travel TipPost a Train Travel Tip **new
Post a Comment/Question/Picture/VideoPost a Comment/Question/Picture/Video
Pantry/Catering
???
RSA - Rake Sharing
Rake/Coach Composition
Loco
News    PNR    Forum    Time-Table    Availability    Fare Chart    Map    Arr/Dep History    Trips    Gallery    ΣChains    X/O    Timeline    
Travel Time: 1h 0m    5 halts    Distance: 44 km    Avg Speed: 44 km/hr
Type: Passenger
Zone: NR/Northern
Departs @ 05:40 (Avg 1h 18m late)
Platform# 8
SMTWTFS
Varanasi Junction/BSB 
Arrives @ 06:40 (Avg 1h 57m late)
Platform# ???
SMTWTFS
Bhadohi/BOY 

5 halts. 5 intermediate Stations between Varanasi Junction and Bhadohi

Show ALL intermediate Stations  Show Old Time-Table

#CodeStation NameX/OArrivesAvgDepartsAvgHaltPFDay#KmSpeedElevZoneAddress
1BSBVaranasi Junction (9)»  -05:40+1:18810.02782mNRVaranasi 221002, Uttar Pradesh
2LOTLohta (3)  05:53+1:3905:54+1:441m--15.96080mNRLohta, Uttar Pradesh
3CHHChaukhandi  06:04+1:4006:05+1:441m--115.95084mNR221405, Uttar Pradesh
4SWPRSewapuri (2)X  06:13+1:5106:14+1:541m1122.54687mNRState Highway 87, Uttar Pradesh
5KEHKapseti (2)X  06:21+1:5606:22+2:011m--127.96385mNRState Highway 87, Uttar Pradesh
6PRFParsipur (2)  06:30+1:4806:31+1:551m--136.25587mNRSant Ravidas Nagar, Uttar Pradesh
7BOYBhadohi (2)•X  06:40+1:5706:41+2:001m--144.55490mNRUttar Pradesh 221401, Uttar Pradesh
8MOFMondh (2)  06:50+2:0106:51+2:051m--152.65491mNRUttar Pradesh 221406, Uttar Pradesh
9SAWSuriawan (2)X  06:59+2:0807:00+2:101m--159.96090mNR221404, Uttar Pradesh
10SQNSarai Kansrai (2)  07:09 07:10+2:1307:10 07:11+2:181m--169.93492mNRGopalaha Marg, Uttar Pradesh
11JNHJanghai Junction (3)  07:18 07:20+2:1907:20 07:22+2:252m--174.94892mNRUttar Pradesh 212401, Uttar Pradesh
12NBPNibhapur (1)  07:31 07:32+2:1507:32 07:33+2:161m1182.96691mNRThakur Rd, Uttar Pradesh
13BSEBadshahpur (2)  07:40 07:41+2:2307:41 07:42+2:261m--191.75093mNRMungra Badshahpur, Uttar Pradesh
14SWSSuwansa (2)  07:49 07:50+2:3207:50 07:51+2:331m--198.342100mNRState Highway 36, Uttar Pradesh
15GRXGaura (2)  07:58 07:59+2:3507:59 08:00+2:391m--1103.96097mNRState Highway 36, Uttar Pradesh
16DNDDandupur (1)  08:09 08:10+2:4008:10 08:11+2:421m11113.95199mNRDelhupur, Uttar Pradesh
17PHVPirthiGanj (2)X  08:18 08:19+2:4408:19 08:20+2:511m--1120.71199mNRState Highway 36, Uttar Pradesh
18PBHPratapgarh Junction (3)X  09:00+2:3709:10+2:4310m21128.11697mNRPratapgarh, Uttar Pradesh
19CILChilbila Junction (5)  09:24 09:25+2:4509:25 09:26+2:381m--1132.08399mNRState Highway 9, Uttar Pradesh
20JGJJageshwarganj (1)  09:34 09:35+2:4009:35 09:36+2:431m11144.453101mNRPartapgarh, Uttar Pradesh
21ANTUAntu (2)  09:44 09:45+2:4409:45 09:46+2:471m--1152.316101mNRDist. Pratapgarh, Uttar Pradesh
22SHJPSahajipur Halt (1)X  09:51 09:52-09:52 09:53-1m11153.951102mNRSahajipur, Uttar Pradesh
23MFLMisrauli (1)  09:58 09:59+2:4909:59 10:00+2:531m11159.031100mNRGauriGanj, Uttar Pradesh
24AMEAmethi (2)  10:07 10:08+2:3210:08 10:10+2:391 2m--1163.150107mNRAmethi., Uttar Pradesh
25TLKHTalakhajuri (1)XO  10:18 10:19+3:0210:19 10:20+3:071m11170.643112mNRAntu, Uttar Pradesh
26GNGGauriGanj (2)O  10:27 10:28+3:0810:28 10:29+3:151m--1176.456110mNRSH 34, Uttar Pradesh
27BANIBani (1)  10:37 10:38+3:1110:38 10:39+3:161m11184.754109mNRJais, Uttar Pradesh
28KCJKasimpur (1)  10:46 10:47-10:47 10:48-1m11192.030111mNRGauriGanj, Uttar Pradesh
29JAISJais (2)  10:52 10:53+3:1510:53 10:54+3:221m--1194.470108mNRRae Bareli, Uttar Pradesh
30FTGFursatGanj (2)  11:02 11:03+3:2411:03 11:04+3:291m--1205.069119mNRJais, Uttar Pradesh
31RUMRupamau (2)  11:11 11:12+3:3211:12 11:13+3:451m--1214.210118mNRGangaGanj, Uttar Pradesh
32RBLRae Bareli Junction (4)X  12:05+2:5112:15+2:5310m--1223.246116mNRRaebareli, Uttar Pradesh
33GANGGangaGanj (2)  12:25+3:1112:26+3:171m--1230.960118mNRBachhrawan, Uttar Pradesh
34HCPHarchandpur (3)X  12:33+3:2512:34+3:271m--1237.954118mNRRae Bareli, Uttar Pradesh
35KVGKundanganj (2)  12:41+3:3312:42+3:441m--1244.334119mNRHarchandpur, Uttar Pradesh
36BCNBachhrawan (2)  12:55 12:59+3:3812:57 13:00+3:432 1m--1253.826124mNRLucknow, Uttar Pradesh
37SAGRShrirajnagar (1)X  13:05 13:13+3:4213:06 13:14+3:451m11259.545122mNRMohanlalGanj, Uttar Pradesh
38NHNNigohan (1)X  13:14 13:22+3:4813:15 13:23+3:511m11265.552120mNRLucknow, Uttar Pradesh
39KKAHKankaha (1)  13:24 13:31+3:5113:25 13:32+3:521m11272.460125mNRBachhrawan, Uttar Pradesh
40MLJMohanlalGanj (1)  13:33 13:40+3:5413:34 13:41+3:511m11280.422124mNRMohanlalganj, Uttar Pradesh
41UTRUtraitia Junction (2)X  14:04+3:4514:05+3:161m--1288.916124mNRLucknow, Uttar Pradesh
42LKOLucknow Charbagh NR (9)  14:50+2:52---1301.1-123mNR226004, Uttar Pradesh
Scroll to Top
Scroll to Bottom